createdAt,value
2023-01-27T00:01:50.464Z,99398.28
2023-01-27T00:04:39.581Z,99404.88
2023-01-27T00:07:28.674Z,99406.53
2023-01-27T00:10:12.185Z,99405.06
2023-01-27T00:13:24.667Z,99410.91
2023-01-27T00:16:13.696Z,99410.22
2023-01-27T00:18:55.891Z,99409.28
2023-01-27T00:22:02.629Z,99406.09
2023-01-27T00:24:44.864Z,99422.09
2023-01-27T00:27:36.542Z,99413.34
2023-01-27T00:30:25.617Z,99418.69
2023-01-27T00:33:26.000Z,99420.34
2023-01-27T00:36:15.614Z,99430.53
2023-01-27T00:38:57.898Z,99431.97
2023-01-27T00:41:47.566Z,99434.81
2023-01-27T00:44:36.535Z,99431.75
2023-01-27T00:47:27.613Z,99429.78
2023-01-27T00:50:16.655Z,99436.06
2023-01-27T00:53:06.579Z,99439.22
2023-01-27T00:55:50.676Z,99448.69
2023-01-27T00:58:39.999Z,99459.53
2023-01-27T01:01:24.588Z,99450.34
2023-01-27T01:04:13.901Z,99446.94
2023-01-27T01:06:55.623Z,99451.81
2023-01-27T01:09:44.627Z,99454.28
2023-01-27T01:12:37.629Z,99449.38
2023-01-27T01:15:19.791Z,99459.72
2023-01-27T01:18:08.603Z,99464.00
2023-01-27T01:20:53.689Z,99469.50
2023-01-27T01:23:43.607Z,99470.25
2023-01-27T01:26:25.806Z,99475.53
2023-01-27T01:29:14.633Z,99472.47
2023-01-27T01:31:56.776Z,99475.81
2023-01-27T01:34:46.555Z,99477.69
2023-01-27T01:37:28.862Z,99488.72
2023-01-27T01:40:20.681Z,99496.97
2023-01-27T01:43:10.898Z,99498.16
2023-01-27T01:46:02.705Z,99499.16
2023-01-27T01:49:04.042Z,99500.59
2023-01-27T01:51:57.643Z,99501.38
2023-01-27T01:54:56.112Z,99509.34
2023-01-27T01:57:45.583Z,99521.34
2023-01-27T02:00:28.815Z,99517.44
2023-01-27T02:03:18.612Z,99515.91
2023-01-27T02:06:08.882Z,99520.47
2023-01-27T02:08:55.619Z,99531.22
2023-01-27T02:11:44.501Z,99535.88
2023-01-27T02:14:33.608Z,99528.94
2023-01-27T02:17:23.613Z,99541.53
2023-01-27T02:20:47.958Z,99544.63
2023-01-27T02:23:58.621Z,99562.53
2023-01-27T02:26:52.876Z,99569.94
2023-01-27T02:29:43.596Z,99568.66
2023-01-27T02:32:40.278Z,99567.59
2023-01-27T02:35:33.329Z,99570.41
2023-01-27T02:38:25.640Z,99578.00
2023-01-27T02:41:36.425Z,99581.88
2023-01-27T02:44:26.608Z,99600.44
2023-01-27T02:47:08.752Z,99597.53
2023-01-27T02:49:57.646Z,99596.88
2023-01-27T02:52:39.750Z,99602.50
2023-01-27T02:55:28.641Z,99606.25
2023-01-27T02:58:17.908Z,99623.69
2023-01-27T03:01:04.677Z,99625.03
2023-01-27T03:03:48.173Z,99620.09
2023-01-27T03:06:36.599Z,99613.88
2023-01-27T03:09:24.912Z,99616.91
2023-01-27T03:12:27.561Z,99630.47
2023-01-27T03:15:28.994Z,99635.28
2023-01-27T03:18:23.575Z,99637.00
2023-01-27T03:21:08.009Z,99645.47
2023-01-27T03:23:57.658Z,99647.47
2023-01-27T03:26:39.674Z,99659.53
2023-01-27T03:29:49.526Z,99662.09
2023-01-27T03:32:34.241Z,99659.75
2023-01-27T03:35:55.594Z,99665.19
2023-01-27T03:39:02.362Z,99657.25
2023-01-27T03:42:03.581Z,99661.16
2023-01-27T03:45:11.707Z,99666.53
2023-01-27T03:47:54.584Z,99671.06
2023-01-27T03:50:50.568Z,99681.66
2023-01-27T03:53:39.561Z,99677.00
2023-01-27T03:56:29.857Z,99688.53
2023-01-27T03:59:12.572Z,99683.97
2023-01-27T04:02:19.173Z,99691.28
2023-01-27T04:05:19.810Z,99691.28
2023-01-27T04:08:07.941Z,99695.75
2023-01-27T04:11:09.658Z,99688.63
2023-01-27T04:13:57.915Z,99691.25
2023-01-27T04:16:42.528Z,99696.81
2023-01-27T04:19:25.402Z,99699.53
2023-01-27T04:22:15.557Z,99711.38
2023-01-27T04:25:03.918Z,99710.84
2023-01-27T04:27:52.632Z,99720.59
2023-01-27T04:30:41.630Z,99724.69
2023-01-27T04:33:30.854Z,99717.84
2023-01-27T04:36:13.523Z,99726.53
2023-01-27T04:39:02.581Z,99724.81
2023-01-27T04:41:46.624Z,99732.78
2023-01-27T04:44:35.626Z,99722.13
2023-01-27T04:47:17.916Z,99724.63
2023-01-27T04:50:06.687Z,99732.34
2023-01-27T04:52:49.046Z,99732.47
2023-01-27T04:55:37.571Z,99738.16
2023-01-27T04:58:20.918Z,99718.94
2023-01-27T05:01:09.625Z,99729.81
2023-01-27T05:03:52.036Z,99717.00
2023-01-27T05:06:40.574Z,99716.66
2023-01-27T05:09:22.961Z,99717.94
2023-01-27T05:12:11.638Z,99720.41
2023-01-27T05:14:53.886Z,99719.81
2023-01-27T05:17:43.540Z,99703.44
2023-01-27T05:20:26.054Z,99708.56
2023-01-27T05:23:32.619Z,99707.53
2023-01-27T05:26:35.904Z,99705.88
2023-01-27T05:29:24.605Z,99706.91
2023-01-27T05:32:13.571Z,99700.25
2023-01-27T05:35:01.872Z,99708.22
2023-01-27T05:37:44.618Z,99697.59
2023-01-27T05:40:33.444Z,99696.75
2023-01-27T05:43:22.617Z,99688.91
2023-01-27T05:46:15.615Z,99683.19
2023-01-27T05:49:07.588Z,99686.56
2023-01-27T05:51:55.867Z,99679.03
2023-01-27T05:54:38.575Z,99673.97
2023-01-27T05:57:20.950Z,99676.94
2023-01-27T06:00:09.612Z,99672.63
2023-01-27T06:02:57.846Z,99667.25
2023-01-27T06:05:40.523Z,99656.38
2023-01-27T06:08:31.012Z,99651.41
2023-01-27T06:11:13.629Z,99653.63
2023-01-27T06:14:03.554Z,99647.53
2023-01-27T06:16:48.344Z,99633.09
2023-01-27T06:19:37.539Z,99630.34
2023-01-27T06:22:26.592Z,99620.84
2023-01-27T06:25:09.396Z,99621.44
2023-01-27T06:27:58.604Z,99620.81
2023-01-27T06:30:41.664Z,99614.28
2023-01-27T06:33:30.520Z,99613.28
2023-01-27T06:36:25.558Z,99604.47
2023-01-27T06:39:07.900Z,99603.44
2023-01-27T06:41:57.531Z,99591.13
2023-01-27T06:44:39.861Z,99594.66
2023-01-27T06:47:28.596Z,99586.09
2023-01-27T06:50:11.309Z,99584.91
2023-01-27T06:53:01.580Z,99577.31
2023-01-27T06:55:52.604Z,99566.50
2023-01-27T06:58:41.821Z,99551.84
2023-01-27T07:01:24.577Z,99541.22
2023-01-27T07:04:12.905Z,99537.66
2023-01-27T07:06:54.556Z,99539.84
2023-01-27T07:09:52.291Z,99534.19
2023-01-27T07:12:38.751Z,99539.19
2023-01-27T07:15:27.576Z,99536.72
2023-01-27T07:18:09.917Z,99528.13
2023-01-27T07:20:58.610Z,99519.69
2023-01-27T07:23:40.830Z,99509.50
2023-01-27T07:26:29.528Z,99502.44
2023-01-27T07:29:17.930Z,99493.47
2023-01-27T07:32:00.655Z,99485.38
2023-01-27T07:34:48.822Z,99483.50
2023-01-27T07:37:30.532Z,99477.19
2023-01-27T07:40:14.852Z,99471.88
2023-01-27T07:43:03.508Z,99469.78
2023-01-27T07:45:50.060Z,99472.19
2023-01-27T07:48:38.578Z,99477.84
2023-01-27T07:51:27.563Z,99476.44
2023-01-27T07:54:09.816Z,99465.16
2023-01-27T07:56:58.605Z,99460.78
2023-01-27T07:59:40.851Z,99451.38
2023-01-27T08:02:33.563Z,99439.91
2023-01-27T08:05:16.780Z,99439.53
2023-01-27T08:08:06.552Z,99427.38
2023-01-27T08:10:50.383Z,99433.22
2023-01-27T08:13:39.615Z,99427.97
2023-01-27T08:16:22.894Z,99424.72
2023-01-27T08:19:11.618Z,99419.75
2023-01-27T08:21:53.955Z,99417.41
2023-01-27T08:24:51.578Z,99413.72
2023-01-27T08:27:33.854Z,99406.16
2023-01-27T08:30:22.579Z,99396.44
2023-01-27T08:33:11.729Z,99391.47
2023-01-27T08:35:59.784Z,99392.84
2023-01-27T08:38:42.500Z,99383.66
2023-01-27T08:41:33.513Z,99372.94
2023-01-27T08:44:15.804Z,99369.69
2023-01-27T08:47:04.570Z,99371.28
2023-01-27T08:49:53.512Z,99371.44
2023-01-27T08:52:36.006Z,99374.25
2023-01-27T08:55:24.543Z,99369.50
2023-01-27T08:58:13.514Z,99370.44
2023-01-27T09:01:02.598Z,99376.34
2023-01-27T09:03:44.923Z,99354.81
2023-01-27T09:06:34.600Z,99351.78
2023-01-27T09:09:17.036Z,99354.03
2023-01-27T09:12:05.565Z,99346.75
2023-01-27T09:14:47.900Z,99338.06
2023-01-27T09:17:36.607Z,99334.50
2023-01-27T09:20:25.781Z,99331.72
2023-01-27T09:23:09.580Z,99337.69
2023-01-27T09:25:58.977Z,99332.53
2023-01-27T09:28:47.551Z,99333.34
2023-01-27T09:31:30.188Z,99329.19
2023-01-27T09:34:19.602Z,99322.13
2023-01-27T09:37:14.615Z,99323.09
2023-01-27T09:40:10.786Z,99325.19
2023-01-27T09:43:46.564Z,99320.97
2023-01-27T09:47:02.577Z,99312.34
2023-01-27T09:50:07.996Z,99312.59
2023-01-27T09:53:14.579Z,99306.06
2023-01-27T09:56:17.814Z,99306.44
2023-01-27T09:59:19.540Z,99307.34
2023-01-27T10:02:26.542Z,99303.97
2023-01-27T10:05:33.553Z,99306.88
2023-01-27T10:08:34.617Z,99314.13
2023-01-27T10:11:53.735Z,99306.06
2023-01-27T10:15:09.851Z,99302.09
2023-01-27T10:18:12.928Z,99304.34
2023-01-27T10:21:25.497Z,99299.06
2023-01-27T10:24:25.776Z,99301.28
2023-01-27T10:27:31.580Z,99293.31
2023-01-27T10:30:45.569Z,99288.88
2023-01-27T10:33:56.671Z,99302.56
2023-01-27T10:37:00.525Z,99299.75
2023-01-27T10:40:08.532Z,99299.16
2023-01-27T10:43:03.202Z,99304.41
2023-01-27T10:46:18.526Z,99293.56
2023-01-27T10:49:10.755Z,99297.75
2023-01-27T10:52:11.562Z,99293.31
2023-01-27T10:55:48.609Z,99289.91
2023-01-27T10:58:48.177Z,99293.22
2023-01-27T11:01:48.514Z,99295.97
2023-01-27T11:04:44.143Z,99283.13
2023-01-27T11:07:35.516Z,99285.81
2023-01-27T11:10:20.668Z,99284.19
2023-01-27T11:13:13.558Z,99279.13
2023-01-27T11:16:02.535Z,99284.16
2023-01-27T11:18:47.558Z,99280.81
2023-01-27T11:21:39.532Z,99285.00
2023-01-27T11:24:59.528Z,99293.25
2023-01-27T11:28:14.572Z,99290.22
2023-01-27T11:31:18.371Z,99286.47
2023-01-27T11:34:18.465Z,99291.06
2023-01-27T11:37:14.526Z,99296.06
2023-01-27T11:39:56.807Z,99295.91
2023-01-27T11:42:49.638Z,99287.38
2023-01-27T11:45:44.545Z,99286.19
2023-01-27T11:48:28.757Z,99281.34
2023-01-27T11:51:30.570Z,99280.59
2023-01-27T11:54:33.775Z,99282.28
2023-01-27T11:57:31.467Z,99276.41
2023-01-27T12:00:37.220Z,99271.94
2023-01-27T12:03:36.452Z,99269.19
2023-01-27T12:06:56.557Z,99275.03
2023-01-27T12:09:45.879Z,99279.63
2023-01-27T12:12:33.469Z,99290.88
2023-01-27T12:15:26.512Z,99293.63
2023-01-27T12:18:12.883Z,99281.28
2023-01-27T12:21:09.473Z,99293.09
2023-01-27T12:24:02.827Z,99296.88
2023-01-27T12:26:53.519Z,99291.59
2023-01-27T12:29:48.891Z,99289.72
2023-01-27T12:32:46.538Z,99293.47
2023-01-27T12:35:37.157Z,99299.81
2023-01-27T12:38:34.492Z,99299.03
2023-01-27T12:41:27.002Z,99305.81
2023-01-27T12:44:36.506Z,99309.16
2023-01-27T12:47:35.978Z,99310.25
2023-01-27T12:50:30.524Z,99315.34
2023-01-27T12:53:17.017Z,99323.75
2023-01-27T12:56:35.561Z,99330.44
2023-01-27T12:59:27.475Z,99333.13
2023-01-27T13:02:24.846Z,99341.19
2023-01-27T13:05:18.551Z,99330.69
2023-01-27T13:08:02.544Z,99334.56
2023-01-27T13:11:18.549Z,99338.56
2023-01-27T13:14:00.957Z,99337.53
2023-01-27T13:16:51.380Z,99333.69
2023-01-27T13:20:01.525Z,99339.63
2023-01-27T13:22:54.789Z,99335.78
2023-01-27T13:25:50.538Z,99347.34
2023-01-27T13:28:54.440Z,99348.63
2023-01-27T13:32:01.561Z,99352.97
2023-01-27T13:34:49.850Z,99351.34
2023-01-27T13:37:49.485Z,99348.69
2023-01-27T13:40:44.940Z,99359.34
2023-01-27T13:43:45.458Z,99357.31
2023-01-27T13:46:35.956Z,99355.69
2023-01-27T13:49:45.496Z,99352.38
2023-01-27T13:52:34.583Z,99363.47
2023-01-27T13:55:17.148Z,99363.88
2023-01-27T13:58:19.488Z,99365.50
2023-01-27T14:01:30.873Z,99366.53
2023-01-27T14:04:31.592Z,99368.78
2023-01-27T14:07:31.951Z,99366.75
2023-01-27T14:10:32.520Z,99373.88
2023-01-27T14:13:51.918Z,99373.66
2023-01-27T14:16:56.567Z,99367.09
2023-01-27T14:19:51.792Z,99376.72
2023-01-27T14:22:43.488Z,99372.00
2023-01-27T14:25:35.529Z,99379.75
2023-01-27T14:28:51.506Z,99381.75
2023-01-27T14:31:54.557Z,99385.59
2023-01-27T14:35:25.497Z,99390.22
2023-01-27T14:38:29.027Z,99394.66
2023-01-27T14:41:29.017Z,99394.72
2023-01-27T14:44:33.834Z,99392.53
2023-01-27T14:47:38.517Z,99393.41
2023-01-27T14:50:43.106Z,99396.97
2023-01-27T14:53:47.564Z,99399.69
2023-01-27T14:57:07.382Z,99396.91
2023-01-27T15:00:20.526Z,99399.84
2023-01-27T15:03:50.042Z,99401.28
2023-01-27T15:06:34.528Z,99397.84
2023-01-27T15:09:35.364Z,99385.56
2023-01-27T15:12:42.632Z,99391.13
2023-01-27T15:15:46.169Z,99392.53
2023-01-27T15:18:53.466Z,99398.72
2023-01-27T15:21:57.774Z,99403.19
2023-01-27T15:24:45.543Z,99399.78
2023-01-27T15:27:36.148Z,99399.50
2023-01-27T15:30:48.564Z,99399.94
2023-01-27T15:34:04.849Z,99411.00
2023-01-27T15:36:48.512Z,99412.41
2023-01-27T15:39:42.551Z,99411.84
2023-01-27T15:42:29.100Z,99413.41
2023-01-27T15:45:43.834Z,99421.56
2023-01-27T15:48:32.985Z,99409.94
2023-01-27T15:51:27.548Z,99412.22
2023-01-27T15:54:17.613Z,99414.56
2023-01-27T15:57:11.888Z,99405.25
2023-01-27T15:59:59.422Z,99404.47
2023-01-27T16:02:52.539Z,99406.69
2023-01-27T16:05:45.486Z,99398.97
2023-01-27T16:08:40.576Z,99402.22
2023-01-27T16:11:37.974Z,99404.97
2023-01-27T16:14:32.577Z,99400.44
2023-01-27T16:17:24.066Z,99398.88
2023-01-27T16:20:32.463Z,99409.44
2023-01-27T16:23:38.833Z,99405.84
2023-01-27T16:26:48.571Z,99402.13
2023-01-27T16:29:52.352Z,99402.41
2023-01-27T16:32:49.507Z,99394.06
2023-01-27T16:35:38.506Z,99385.25
2023-01-27T16:38:35.784Z,99392.09
2023-01-27T16:41:43.492Z,99393.56
2023-01-27T16:44:58.891Z,99382.78
2023-01-27T16:47:51.538Z,99386.56
2023-01-27T16:50:49.772Z,99389.59
2023-01-27T16:53:33.904Z,99388.28
2023-01-27T16:56:35.563Z,99388.91
2023-01-27T16:59:38.516Z,99389.44
2023-01-27T17:02:33.227Z,99380.94
2023-01-27T17:05:23.484Z,99383.22
2023-01-27T17:08:36.852Z,99377.09
2023-01-27T17:11:27.588Z,99379.75
2023-01-27T17:14:30.328Z,99379.00
2023-01-27T17:17:23.449Z,99375.97
2023-01-27T17:20:22.551Z,99375.72
2023-01-27T17:23:12.890Z,99378.63
2023-01-27T17:25:55.552Z,99381.47
2023-01-27T17:28:44.711Z,99384.41
2023-01-27T17:31:33.578Z,99384.34
2023-01-27T17:34:24.934Z,99382.22
2023-01-27T17:37:24.464Z,99370.13
2023-01-27T17:40:09.892Z,99381.84
2023-01-27T17:42:58.591Z,99367.44
2023-01-27T17:45:40.805Z,99370.16
2023-01-27T17:48:29.482Z,99352.97
2023-01-27T17:51:16.069Z,99341.91
2023-01-27T17:54:06.485Z,99347.28
2023-01-27T17:59:37.875Z,99336.06
2023-01-27T18:02:33.037Z,99344.84
2023-01-27T18:05:41.566Z,99347.56
2023-01-27T18:08:24.657Z,99338.41
2023-01-27T18:11:28.606Z,99329.00
2023-01-27T18:14:24.948Z,99327.44
2023-01-27T18:17:35.463Z,99335.91
2023-01-27T18:20:42.819Z,99327.06
2023-01-27T18:23:40.525Z,99331.03
2023-01-27T18:26:51.129Z,99325.19
2023-01-27T18:29:45.493Z,99327.50
2023-01-27T18:32:37.369Z,99323.22
2023-01-27T18:35:41.502Z,99315.00
2023-01-27T18:38:43.533Z,99310.63
2023-01-27T18:41:39.140Z,99301.66
2023-01-27T18:44:22.518Z,99302.28
2023-01-27T18:47:42.467Z,99305.53
2023-01-27T18:50:34.730Z,99295.91
2023-01-27T18:53:26.438Z,99299.56
2023-01-27T18:56:15.858Z,99295.13
2023-01-27T18:58:58.417Z,99301.38
2023-01-27T19:01:47.789Z,99306.03
2023-01-27T19:04:31.963Z,99326.88
2023-01-27T19:07:24.858Z,99329.53
2023-01-27T19:10:07.422Z,99307.06
2023-01-27T19:12:56.814Z,99297.66
2023-01-27T19:15:45.407Z,99292.75
2023-01-27T19:18:52.563Z,99290.09
2023-01-27T19:21:35.383Z,99284.78
2023-01-27T19:24:25.513Z,99266.53
2023-01-27T19:27:11.039Z,99248.75
2023-01-27T19:29:59.477Z,99253.84
2023-01-27T19:32:41.672Z,99254.25
2023-01-27T19:35:30.419Z,99246.69
2023-01-27T19:38:19.726Z,99238.16
2023-01-27T19:41:02.395Z,99242.97
2023-01-27T19:43:54.527Z,99237.31
2023-01-27T19:46:37.863Z,99234.56
2023-01-27T19:49:27.471Z,99232.56
2023-01-27T19:52:11.060Z,99223.75
2023-01-27T19:54:59.482Z,99211.88
2023-01-27T19:57:41.932Z,99203.06
2023-01-27T20:00:37.489Z,99209.16
2023-01-27T20:03:19.994Z,99216.53
2023-01-27T20:06:08.726Z,99212.31
2023-01-27T20:08:53.101Z,99211.66
2023-01-27T20:11:52.494Z,99200.88
2023-01-27T20:14:34.794Z,99197.22
2023-01-27T20:17:23.502Z,99193.97
2023-01-27T20:20:05.721Z,99193.78
2023-01-27T20:22:54.451Z,99190.19
2023-01-27T20:25:36.748Z,99183.50
2023-01-27T20:28:25.568Z,99197.63
2023-01-27T20:31:25.433Z,99206.41
2023-01-27T20:34:14.383Z,99204.78
2023-01-27T20:37:04.486Z,99205.63
2023-01-27T20:39:46.820Z,99206.22
2023-01-27T20:42:36.387Z,99199.34
2023-01-27T20:45:26.491Z,99198.56
2023-01-27T20:48:08.745Z,99200.03
2023-01-27T20:51:07.548Z,99192.28
2023-01-27T20:53:51.819Z,99183.53
2023-01-27T20:56:40.483Z,99191.69
2023-01-27T20:59:22.736Z,99181.16
2023-01-27T21:02:11.497Z,99190.44
2023-01-27T21:04:53.681Z,99193.53
2023-01-27T21:07:42.415Z,99192.81
2023-01-27T21:10:26.762Z,99189.66
2023-01-27T21:13:15.427Z,99187.31
2023-01-27T21:16:05.422Z,99191.09
2023-01-27T21:18:53.712Z,99201.78
2023-01-27T21:21:38.390Z,99201.50
2023-01-27T21:24:27.080Z,99200.66
2023-01-27T21:27:09.506Z,99197.19
2023-01-27T21:30:04.301Z,99188.06
2023-01-27T21:32:53.378Z,99192.94
2023-01-27T21:35:35.743Z,99191.13
2023-01-27T21:38:26.453Z,99195.13
2023-01-27T21:41:20.468Z,99188.06
2023-01-27T21:44:21.206Z,99180.41
2023-01-27T21:47:10.514Z,99178.13
2023-01-27T21:50:01.914Z,99173.13
2023-01-27T21:52:54.430Z,99173.69
2023-01-27T21:55:36.694Z,99172.16
2023-01-27T21:58:25.413Z,99164.75
2023-01-27T22:01:18.543Z,99167.50
2023-01-27T22:04:00.806Z,99160.31
2023-01-27T22:06:49.539Z,99152.84
2023-01-27T22:09:31.677Z,99155.50
2023-01-27T22:12:23.387Z,99152.06
2023-01-27T22:15:14.796Z,99149.31
2023-01-27T22:18:03.778Z,99138.25
2023-01-27T22:20:45.398Z,99138.97
2023-01-27T22:23:27.522Z,99127.66
2023-01-27T22:26:18.366Z,99129.78
2023-01-27T22:29:01.609Z,99118.44
2023-01-27T22:31:50.392Z,99111.69
2023-01-27T22:34:32.769Z,99124.78
2023-01-27T22:37:21.422Z,99123.94
2023-01-27T22:40:03.688Z,99130.28
2023-01-27T22:42:52.452Z,99130.50
2023-01-27T22:45:41.503Z,99122.09
2023-01-27T22:48:23.706Z,99115.47
2023-01-27T22:51:13.471Z,99112.44
2023-01-27T22:53:55.720Z,99115.03
2023-01-27T22:56:45.449Z,99109.81
2023-01-27T22:59:27.735Z,99112.16
2023-01-27T23:02:16.408Z,99109.28
2023-01-27T23:04:58.696Z,99104.50
2023-01-27T23:07:47.419Z,99108.28
2023-01-27T23:10:29.625Z,99098.91
2023-01-27T23:13:19.376Z,99112.16
2023-01-27T23:16:08.400Z,99106.31
2023-01-27T23:18:51.947Z,99106.53
2023-01-27T23:21:41.419Z,99109.38
2023-01-27T23:24:30.426Z,99104.97
2023-01-27T23:27:12.649Z,99097.66
2023-01-27T23:30:01.390Z,99106.16
2023-01-27T23:32:49.701Z,99094.03
2023-01-27T23:35:32.385Z,99088.13
2023-01-27T23:38:32.016Z,99095.53
2023-01-27T23:41:29.364Z,99098.53
2023-01-27T23:44:13.872Z,99103.22
2023-01-27T23:47:02.398Z,99093.53
2023-01-27T23:49:51.470Z,99101.13
2023-01-27T23:52:33.662Z,99099.16
2023-01-27T23:55:22.460Z,99093.41
2023-01-27T23:58:04.705Z,99091.91
